Time;durP1;ratioP1;P1;durP2;ratioP2;P2;SDS_P1;SDS_P2;PMS_P1;PMS_P2;Temp;Humidity;BMP_temperature;BMP_pressure;BME280_temperature;BME280_humidity;BME280_pressure;Samples;Min_cycle;Max_cycle;Signal;HPM_P1;HPM_P2
2022/01/03 00:01:19;;;;;;;1.60;1.50;;;9.80;98.70;;;;;;5023910;28;20549;-60
2022/01/03 00:03:46;;;;;;;1.97;1.20;;;9.80;97.70;;;;;;5023430;28;20454;-60
2022/01/03 00:06:12;;;;;;;5.30;1.70;;;9.80;97.60;;;;;;5026986;28;20426;-59
2022/01/03 00:08:44;;;;;;;5.00;1.60;;;9.90;97.50;;;;;;5025212;28;20968;-60
2022/01/03 00:11:12;;;;;;;5.83;1.60;;;9.90;97.40;;;;;;5025719;28;20175;-59
2022/01/03 00:13:43;;;;;;;7.13;1.80;;;10.00;96.00;;;;;;5026457;28;20777;-61
2022/01/03 00:16:09;;;;;;;4.17;1.40;;;10.00;95.80;;;;;;5025575;28;20845;-60
2022/01/03 00:18:35;;;;;;;6.73;1.57;;;10.00;95.50;;;;;;5025174;28;20505;-60
2022/01/03 00:21:01;;;;;;;5.40;2.17;;;10.00;95.30;;;;;;5024902;28;20462;-59
2022/01/03 00:23:29;;;;;;;4.50;1.60;;;10.00;95.50;;;;;;5024771;28;20192;-60
2022/01/03 00:26:00;;;;;;;4.60;1.60;;;10.00;95.80;;;;;;5025666;28;20937;-61
2022/01/03 00:28:45;;;;;;;7.40;1.93;;;10.00;95.70;;;;;;5025654;28;20441;-60
2022/01/03 00:31:11;;;;;;;1.53;1.43;;;10.00;95.30;;;;;;5022589;28;20426;-60
2022/01/03 00:33:38;;;;;;;4.73;1.67;;;10.00;95.20;;;;;;5024220;28;21352;-60
2022/01/03 00:36:04;;;;;;;3.97;1.50;;;10.10;94.20;;;;;;5026720;28;20791;-60
2022/01/03 00:38:33;;;;;;;5.37;1.60;;;10.10;94.40;;;;;;5025503;28;20442;-59
2022/01/03 00:41:00;;;;;;;5.40;1.93;;;10.10;94.40;;;;;;5021807;28;20461;-60
2022/01/03 00:43:27;;;;;;;4.63;1.77;;;10.10;94.30;;;;;;5023368;28;21144;-60
2022/01/03 00:45:54;;;;;;;9.73;2.63;;;10.10;94.60;;;;;;5025541;28;20430;-60
2022/01/03 00:48:20;;;;;;;4.60;1.80;;;10.10;94.90;;;;;;5023007;28;20986;-60
2022/01/03 00:50:46;;;;;;;3.13;1.77;;;10.10;94.50;;;;;;5023189;28;20478;-61
2022/01/03 00:53:12;;;;;;;2.20;1.90;;;10.10;94.10;;;;;;5027706;28;20488;-59
2022/01/03 00:55:51;;;;;;;3.83;1.97;;;10.20;94.00;;;;;;5026250;28;20847;-59
2022/01/03 00:58:19;;;;;;;4.70;2.30;;;10.20;94.40;;;;;;5024454;28;20596;-60
2022/01/03 01:00:50;;;;;;;4.73;1.70;;;10.10;94.60;;;;;;5022232;28;20445;-60
2022/01/03 01:03:20;;;;;;;8.03;1.80;;;10.10;94.70;;;;;;5023761;28;20422;-60
2022/01/03 01:05:48;;;;;;;3.93;2.10;;;10.20;94.60;;;;;;5022043;28;20486;-60
2022/01/03 01:08:22;;;;;;;4.50;2.33;;;10.20;94.90;;;;;;5025165;28;20828;-60
2022/01/03 01:10:51;;;;;;;4.63;1.80;;;10.10;95.20;;;;;;5021746;28;20438;-59
2022/01/03 01:13:18;;;;;;;6.97;2.03;;;10.10;95.20;;;;;;5025964;28;20426;-60
2022/01/03 01:15:44;;;;;;;6.20;2.00;;;10.10;95.20;;;;;;5023913;28;20630;-60
2022/01/03 01:18:10;;;;;;;5.13;1.80;;;10.10;95.10;;;;;;5024738;28;20458;-59
2022/01/03 01:20:37;;;;;;;7.33;2.03;;;10.00;95.40;;;;;;5025264;28;20171;-60
2022/01/03 01:23:04;;;;;;;3.33;1.60;;;10.00;95.10;;;;;;5023591;28;20180;-60
2022/01/03 01:28:06;;;;;;;5.53;1.40;;;10.00;94.90;;;;;;5024366;28;20494;-59
2022/01/03 01:30:33;;;;;;;4.07;1.60;;;10.00;94.50;;;;;;5021751;28;20461;-60
2022/01/03 01:33:08;;;;;;;3.33;1.63;;;10.00;94.50;;;;;;5021059;28;20449;-60
2022/01/03 01:35:43;;;;;;;3.27;1.80;;;10.00;94.40;;;;;;5024393;28;20434;-60
2022/01/03 01:38:11;;;;;;;5.13;1.50;;;10.00;94.30;;;;;;5021639;28;20466;-60
2022/01/03 01:40:54;;;;;;;5.93;1.40;;;10.00;94.50;;;;;;5022792;28;20438;-59
2022/01/03 01:43:41;;;;;;;4.47;1.57;;;9.90;94.60;;;;;;5025341;28;20893;-60
2022/01/03 01:46:13;;;;;;;9.87;2.10;;;10.00;93.50;;;;;;5007311;28;20438;-59
2022/01/03 01:48:41;;;;;;;9.93;1.80;;;10.00;93.40;;;;;;5027838;28;20491;-60
2022/01/03 01:51:09;;;;;;;3.70;1.70;;;10.00;92.60;;;;;;5028991;28;20651;-60
2022/01/03 01:53:43;;;;;;;5.70;1.87;;;10.00;92.90;;;;;;5029705;28;20462;-60
2022/01/03 01:56:15;;;;;;;4.87;2.00;;;10.00;92.60;;;;;;5029306;28;20445;-59
2022/01/03 01:59:21;;;;;;;2.60;1.63;;;10.10;92.80;;;;;;5026983;28;20529;-59
2022/01/03 02:01:47;;;;;;;2.63;1.60;;;10.10;92.60;;;;;;5022608;28;20426;-59
2022/01/03 02:04:15;;;;;;;7.10;1.60;;;10.10;92.40;;;;;;5027248;28;20430;-60
2022/01/03 02:06:47;;;;;;;5.43;1.90;;;10.10;92.80;;;;;;5020359;28;20458;-60
2022/01/03 02:09:41;;;;;;;12.70;1.90;;;10.10;92.50;;;;;;5022199;28;20520;-61
2022/01/03 02:12:15;;;;;;;4.20;1.70;;;10.10;92.90;;;;;;5027087;28;20440;-60
2022/01/03 02:14:41;;;;;;;7.20;1.83;;;10.10;93.50;;;;;;5006511;28;20429;-60
2022/01/03 02:17:07;;;;;;;3.53;2.27;;;10.10;93.10;;;;;;5023910;28;20474;-60
2022/01/03 02:19:37;;;;;;;6.33;1.70;;;10.20;92.60;;;;;;5023148;28;20441;-59
2022/01/03 02:22:03;;;;;;;12.50;1.73;;;10.20;92.60;;;;;;5003524;28;20485;-60
2022/01/03 02:24:29;;;;;;;7.60;1.70;;;10.10;92.60;;;;;;5005481;28;20438;-60
2022/01/03 02:26:55;;;;;;;4.23;1.60;;;10.10;92.80;;;;;;5023541;28;20466;-60
2022/01/03 02:29:21;;;;;;;4.17;1.50;;;10.00;93.00;;;;;;5023394;28;20183;-60
2022/01/03 02:31:47;;;;;;;10.07;1.60;;;10.00;93.20;;;;;;5023710;28;20446;-60
2022/01/03 02:34:12;;;;;;;5.10;1.70;;;10.00;92.20;;;;;;5024699;28;20182;-60
2022/01/03 02:36:44;;;;;;;8.27;1.60;;;10.00;92.60;;;;;;5024299;28;20204;-60
2022/01/03 02:39:09;;;;;;;3.83;2.10;;;10.00;92.40;;;;;;5006437;28;20258;-60
2022/01/03 02:41:35;;;;;;;2.53;1.67;;;10.00;92.30;;;;;;5022848;28;20507;-60
2022/01/03 02:44:01;;;;;;;6.10;2.17;;;10.00;92.00;;;;;;5029569;28;20488;-60
2022/01/03 02:46:27;;;;;;;9.20;1.87;;;10.00;92.60;;;;;;5030429;28;20233;-59
2022/01/03 02:48:53;;;;;;;6.50;1.70;;;10.00;91.90;;;;;;5029992;28;20566;-60
2022/01/03 02:51:18;;;;;;;4.10;1.67;;;9.90;92.10;;;;;;5028045;28;20422;-60
2022/01/03 02:53:44;;;;;;;2.70;1.40;;;9.90;91.80;;;;;;5028520;28;20191;-59
2022/01/03 02:56:10;;;;;;;5.27;1.53;;;9.90;90.50;;;;;;5027686;28;20188;-59
2022/01/03 02:58:35;;;;;;;3.53;1.60;;;9.90;90.60;;;;;;5024019;28;20672;-60
2022/01/03 03:01:02;;;;;;;5.97;1.93;;;9.90;90.30;;;;;;5026661;28;20172;-60
2022/01/03 03:03:28;;;;;;;4.70;1.57;;;9.90;89.30;;;;;;5010502;28;20180;-60
2022/01/03 03:05:53;;;;;;;7.33;1.63;;;9.90;87.70;;;;;;5026011;28;20444;-59
2022/01/03 03:08:19;;;;;;;4.70;1.90;;;9.90;88.30;;;;;;5027478;28;20230;-60
2022/01/03 03:10:45;;;;;;;3.90;1.67;;;9.80;88.50;;;;;;5025459;28;20245;-59
2022/01/03 03:13:11;;;;;;;1.77;1.33;;;9.80;87.60;;;;;;5026068;28;20435;-59
2022/01/03 03:15:37;;;;;;;8.87;1.93;;;9.80;87.40;;;;;;5025251;28;20175;-59
2022/01/03 03:18:03;;;;;;;4.20;2.63;;;9.80;87.70;;;;;;5025481;28;20204;-60
2022/01/03 03:20:31;;;;;;;7.30;1.77;;;9.80;88.30;;;;;;5027572;28;20465;-60
2022/01/03 03:22:59;;;;;;;6.53;1.60;;;9.80;88.00;;;;;;5026798;28;20596;-59
2022/01/03 03:25:31;;;;;;;9.50;1.80;;;9.80;88.90;;;;;;5026143;28;20418;-59
2022/01/03 03:28:08;;;;;;;6.53;1.60;;;9.70;88.30;;;;;;5026658;28;20488;-60
2022/01/03 03:30:40;;;;;;;6.30;1.60;;;9.70;88.70;;;;;;5024365;28;20525;-59
2022/01/03 03:33:18;;;;;;;8.17;1.37;;;9.70;89.20;;;;;;5023407;28;20925;-59
2022/01/03 03:35:44;;;;;;;5.53;1.63;;;9.80;88.70;;;;;;5007036;28;20972;-59
2022/01/03 03:38:10;;;;;;;4.50;1.40;;;9.80;88.50;;;;;;5023733;28;21836;-59
2022/01/03 03:40:36;;;;;;;5.93;1.73;;;9.80;89.10;;;;;;5005550;28;20426;-60
2022/01/03 03:43:02;;;;;;;5.93;1.70;;;9.80;89.10;;;;;;5026142;28;20175;-60
2022/01/03 03:45:28;;;;;;;4.80;1.70;;;9.80;88.90;;;;;;5023948;28;20179;-59
2022/01/03 03:47:56;;;;;;;8.00;1.93;;;9.80;88.90;;;;;;5026633;28;20465;-59
2022/01/03 03:50:22;;;;;;;2.90;1.30;;;9.80;89.70;;;;;;5025451;28;20965;-59
2022/01/03 03:52:48;;;;;;;2.93;1.60;;;9.70;90.10;;;;;;5026749;28;20438;-60
2022/01/03 03:55:14;;;;;;;6.60;1.60;;;9.70;90.50;;;;;;5024853;28;20811;-59
2022/01/03 03:57:40;;;;;;;3.87;1.60;;;9.60;90.00;;;;;;5024264;28;20224;-60
2022/01/03 04:00:11;;;;;;;7.20;2.23;;;9.70;89.80;;;;;;5024968;28;20187;-59
2022/01/03 04:02:37;;;;;;;4.70;1.73;;;9.60;89.30;;;;;;5025272;28;20481;-60
2022/01/03 04:05:04;;;;;;;3.03;1.87;;;9.60;90.00;;;;;;5025399;28;20423;-60
2022/01/03 04:07:29;;;;;;;12.10;2.33;;;9.70;86.30;;;;;;5022742;28;20214;-59
2022/01/03 04:09:55;;;;;;;14.40;2.07;;;9.60;87.70;;;;;;5023863;28;20434;-60
2022/01/03 04:12:21;;;;;;;10.60;1.80;;;9.60;88.00;;;;;;5023108;28;20180;-60
2022/01/03 04:14:47;;;;;;;9.27;1.50;;;9.60;87.10;;;;;;5007955;28;20214;-60
2022/01/03 04:17:12;;;;;;;7.57;1.87;;;9.60;87.40;;;;;;5024791;28;20215;-60
2022/01/03 04:19:39;;;;;;;4.50;1.80;;;9.60;88.30;;;;;;5023939;28;20233;-60
2022/01/03 04:22:04;;;;;;;6.00;1.80;;;9.60;89.70;;;;;;5023948;28;20187;-60
2022/01/03 04:24:30;;;;;;;4.83;1.57;;;9.50;90.10;;;;;;5024431;28;20442;-60
2022/01/03 04:26:56;;;;;;;5.00;1.47;;;9.50;89.20;;;;;;5023333;28;20223;-60
2022/01/03 04:29:21;;;;;;;7.20;1.70;;;9.50;86.90;;;;;;5025239;28;20655;-60
2022/01/03 04:31:47;;;;;;;3.70;1.73;;;9.50;86.30;;;;;;5023769;28;20184;-59
2022/01/03 04:34:13;;;;;;;2.40;1.30;;;9.50;84.60;;;;;;5022583;28;20196;-60
2022/01/03 04:36:40;;;;;;;3.30;1.50;;;9.50;85.40;;;;;;5024787;28;20216;-60
2022/01/03 04:39:06;;;;;;;5.80;1.87;;;9.50;84.10;;;;;;5023063;28;20838;-60
2022/01/03 04:41:33;;;;;;;4.77;1.90;;;9.50;84.30;;;;;;5023045;28;20434;-60
2022/01/03 04:44:00;;;;;;;5.73;1.70;;;9.40;85.10;;;;;;5023034;28;20494;-59
2022/01/03 04:46:26;;;;;;;5.57;1.83;;;9.40;84.90;;;;;;5022795;28;20771;-60
2022/01/03 04:48:51;;;;;;;4.73;1.37;;;9.40;85.50;;;;;;5023226;28;20863;-60
2022/01/03 04:51:17;;;;;;;5.93;1.80;;;9.40;84.30;;;;;;5022509;28;20447;-59
2022/01/03 04:53:43;;;;;;;9.83;1.80;;;9.30;83.00;;;;;;5024317;28;20192;-59
2022/01/03 04:56:11;;;;;;;3.97;1.60;;;9.40;81.80;;;;;;5025487;28;20180;-60
2022/01/03 04:58:37;;;;;;;3.37;1.40;;;9.40;82.80;;;;;;5023624;28;20195;-60
2022/01/03 05:01:04;;;;;;;2.30;1.37;;;9.40;82.50;;;;;;5022896;28;20599;-59
2022/01/03 05:03:30;;;;;;;7.17;2.10;;;9.40;82.90;;;;;;5023172;28;20450;-60
2022/01/03 05:05:55;;;;;;;4.60;1.97;;;9.40;83.30;;;;;;5026680;28;20457;-60
2022/01/03 05:08:21;;;;;;;6.80;1.90;;;9.30;83.40;;;;;;5022977;28;20365;-59
2022/01/03 05:10:47;;;;;;;9.07;1.57;;;9.30;84.40;;;;;;5026180;28;20187;-60
2022/01/03 05:13:12;;;;;;;4.73;1.70;;;9.30;83.40;;;;;;5023180;28;20184;-61
2022/01/03 05:15:38;;;;;;;6.77;1.67;;;9.30;85.10;;;;;;5023052;28;20556;-59
2022/01/03 05:18:04;;;;;;;3.13;1.43;;;9.30;84.80;;;;;;5020731;28;20477;-60
2022/01/03 05:20:29;;;;;;;5.67;1.67;;;9.30;84.60;;;;;;5022106;28;20650;-58
2022/01/03 05:22:55;;;;;;;2.70;1.63;;;9.30;84.70;;;;;;5000111;28;20671;-60
2022/01/03 05:25:21;;;;;;;10.30;1.90;;;9.30;85.30;;;;;;5014816;28;20562;-59
2022/01/03 05:27:48;;;;;;;13.33;2.13;;;9.30;85.40;;;;;;4997038;28;21175;-61
2022/01/03 05:30:14;;;;;;;5.70;2.27;;;9.30;84.50;;;;;;5010515;28;20686;-60
2022/01/03 05:32:39;;;;;;;5.97;1.70;;;9.30;84.80;;;;;;5016353;28;21885;-60
2022/01/03 05:35:05;;;;;;;6.87;1.80;;;9.30;85.40;;;;;;5015988;28;20439;-60
2022/01/03 05:37:31;;;;;;;8.07;1.73;;;9.30;84.90;;;;;;5015241;28;20208;-60
2022/01/03 05:39:57;;;;;;;4.40;1.67;;;9.30;83.30;;;;;;5020254;28;20431;-60
2022/01/03 05:42:22;;;;;;;3.17;1.60;;;9.40;83.70;;;;;;5020058;28;20263;-60
2022/01/03 05:44:48;;;;;;;9.53;2.27;;;9.40;84.00;;;;;;5022287;28;20192;-60
2022/01/03 05:47:14;;;;;;;3.63;1.60;;;9.30;83.80;;;;;;5021996;28;20211;-60
2022/01/03 05:49:39;;;;;;;4.73;1.53;;;9.30;84.60;;;;;;5023157;28;20187;-60
2022/01/03 05:52:05;;;;;;;3.27;1.57;;;9.30;85.70;;;;;;5020794;28;20172;-59
2022/01/03 05:54:31;;;;;;;6.60;1.93;;;9.30;86.00;;;;;;5022738;28;20183;-60
2022/01/03 05:56:56;;;;;;;5.43;1.50;;;9.30;83.90;;;;;;5020724;28;20536;-60
2022/01/03 05:59:22;;;;;;;5.63;1.50;;;9.30;84.70;;;;;;5020622;28;20456;-59
2022/01/03 06:01:48;;;;;;;10.90;2.20;;;9.30;84.40;;;;;;5026383;28;20415;-60
2022/01/03 06:06:55;;;;;;;8.40;2.53;;;9.30;85.00;;;;;;5023813;28;21010;-60
2022/01/03 06:09:22;;;;;;;6.70;1.87;;;9.20;85.30;;;;;;5006446;28;20434;-60
2022/01/03 06:11:49;;;;;;;4.13;1.50;;;9.30;84.70;;;;;;5008409;28;20489;-60
2022/01/03 06:14:18;;;;;;;4.73;1.50;;;9.30;84.30;;;;;;5027080;28;20480;-60
2022/01/03 06:16:45;;;;;;;6.80;2.03;;;9.30;86.00;;;;;;5021857;28;20459;-60
2022/01/03 06:19:12;;;;;;;3.20;1.73;;;9.30;84.60;;;;;;5022625;28;20521;-60
2022/01/03 06:21:40;;;;;;;2.90;1.70;;;9.30;84.60;;;;;;5006735;28;21004;-61
2022/01/03 06:24:10;;;;;;;10.27;2.10;;;9.30;84.80;;;;;;5023396;28;20496;-60
2022/01/03 06:26:37;;;;;;;9.50;1.60;;;9.20;84.40;;;;;;5027488;28;20434;-60
2022/01/03 06:29:04;;;;;;;5.23;2.20;;;9.20;84.10;;;;;;5027448;28;20944;-61
2022/01/03 06:31:31;;;;;;;5.93;1.50;;;9.30;84.70;;;;;;5024425;28;20419;-60
2022/01/03 06:33:56;;;;;;;11.37;1.63;;;9.20;84.80;;;;;;5010746;28;20438;-60
2022/01/03 06:36:22;;;;;;;5.77;1.53;;;9.20;84.30;;;;;;5029210;28;20502;-61
2022/01/03 06:38:48;;;;;;;7.00;1.60;;;9.20;84.60;;;;;;5030410;28;20182;-59
2022/01/03 06:41:13;;;;;;;7.33;1.47;;;9.20;84.80;;;;;;5030711;28;21346;-59
2022/01/03 06:43:39;;;;;;;5.80;1.77;;;9.20;83.90;;;;;;5012145;28;20701;-59
2022/01/03 06:46:05;;;;;;;4.93;1.40;;;9.20;84.00;;;;;;5021020;28;20657;-58
2022/01/03 06:48:30;;;;;;;5.63;1.70;;;9.20;81.70;;;;;;5025329;28;20242;-60
2022/01/03 06:50:56;;;;;;;5.23;2.03;;;9.20;81.90;;;;;;5026641;28;20267;-59
2022/01/03 06:53:22;;;;;;;4.60;1.30;;;9.20;82.80;;;;;;5030738;28;20804;-60
2022/01/03 06:55:47;;;;;;;6.77;1.50;;;9.30;82.30;;;;;;5028171;28;20549;-60
2022/01/03 06:58:13;;;;;;;10.13;1.60;;;9.20;82.80;;;;;;5022374;28;20786;-60
2022/01/03 07:00:39;;;;;;;5.73;1.57;;;9.20;83.80;;;;;;5019764;28;20199;-60
2022/01/03 07:03:05;;;;;;;2.43;1.33;;;9.20;84.20;;;;;;5005451;28;20191;-60
2022/01/03 07:05:30;;;;;;;9.10;2.00;;;9.20;84.60;;;;;;5002537;28;20263;-59
2022/01/03 07:07:56;;;;;;;3.83;1.63;;;9.20;85.00;;;;;;5029053;28;20223;-59
2022/01/03 07:10:22;;;;;;;3.90;1.53;;;9.20;84.90;;;;;;5008686;28;20234;-59
2022/01/03 07:12:52;;;;;;;3.90;1.70;;;9.10;84.90;;;;;;5024610;28;20207;-61
2022/01/03 07:20:48;;;;;;;8.80;1.70;;;9.20;87.00;;;;;;5021907;28;20484;-58
2022/01/03 07:23:15;;;;;;;3.00;1.23;;;9.20;87.30;;;;;;5026314;28;20430;-60
2022/01/03 07:25:41;;;;;;;3.60;1.83;;;9.10;87.90;;;;;;5024048;28;20211;-60
2022/01/03 07:28:07;;;;;;;3.50;1.53;;;9.10;88.30;;;;;;5020331;28;20862;-60
2022/01/03 07:30:33;;;;;;;4.30;1.80;;;9.10;88.90;;;;;;5025762;28;20172;-60
2022/01/03 07:32:58;;;;;;;4.70;1.43;;;9.10;89.90;;;;;;5027304;28;20710;-60
2022/01/03 07:35:24;;;;;;;4.70;1.70;;;9.10;90.00;;;;;;5028287;28;20180;-60
2022/01/03 07:37:52;;;;;;;6.50;1.60;;;9.10;90.30;;;;;;5027013;28;20218;-61
2022/01/03 07:40:18;;;;;;;3.40;1.47;;;9.10;90.70;;;;;;5009910;28;20176;-60
2022/01/03 07:42:43;;;;;;;3.33;1.20;;;9.10;91.00;;;;;;5009167;28;20979;-60
2022/01/03 07:45:10;;;;;;;3.30;1.40;;;9.10;90.70;;;;;;5009607;28;20183;-60
2022/01/03 07:47:36;;;;;;;8.40;1.53;;;9.10;90.90;;;;;;5026988;28;20976;-59
2022/01/03 07:50:02;;;;;;;4.17;1.53;;;9.10;90.80;;;;;;5026303;28;20480;-60
2022/01/03 07:52:27;;;;;;;4.23;1.50;;;9.10;90.90;;;;;;5025643;28;20549;-60
2022/01/03 07:54:53;;;;;;;4.20;1.40;;;9.10;90.90;;;;;;5025163;28;20513;-60
2022/01/03 07:57:19;;;;;;;8.67;1.60;;;9.10;91.20;;;;;;5024205;28;20293;-61
2022/01/03 07:59:46;;;;;;;6.37;1.63;;;9.20;91.30;;;;;;5022932;28;21790;-59
2022/01/03 08:02:12;;;;;;;4.80;1.47;;;9.10;91.30;;;;;;5006926;28;20422;-60
2022/01/03 08:04:38;;;;;;;6.17;1.50;;;9.10;91.20;;;;;;5027210;28;20438;-62
2022/01/03 08:09:41;;;;;;;4.63;1.47;;;9.20;91.00;;;;;;5000568;28;20219;-60
2022/01/03 08:12:07;;;;;;;4.40;1.50;;;9.20;90.90;;;;;;5003887;28;20815;-59
2022/01/03 08:14:34;;;;;;;3.17;1.50;;;9.20;91.10;;;;;;4986105;28;20511;-58
2022/01/03 08:16:59;;;;;;;6.47;1.73;;;9.20;91.20;;;;;;5002177;28;20546;-59
2022/01/03 08:19:25;;;;;;;38.50;13.40;;;9.20;91.20;;;;;;4984870;28;20562;-56
2022/01/03 08:21:51;;;;;;;8.67;3.63;;;9.30;91.30;;;;;;5001866;28;20184;-58
2022/01/03 08:24:18;;;;;;;3.20;1.80;;;9.30;91.70;;;;;;5001490;28;20235;-59
2022/01/03 08:26:44;;;;;;;8.90;1.50;;;9.30;91.60;;;;;;4984483;28;20188;-61
2022/01/03 08:29:10;;;;;;;4.30;1.80;;;9.30;91.80;;;;;;5001500;28;20546;-58
2022/01/03 08:31:37;;;;;;;6.67;2.00;;;9.30;92.20;;;;;;5001319;28;20407;-59
2022/01/03 08:34:03;;;;;;;4.23;1.57;;;9.30;92.60;;;;;;5002028;28;20431;-58
2022/01/03 08:36:29;;;;;;;5.90;1.70;;;9.30;92.60;;;;;;5002048;28;20944;-59
2022/01/03 08:38:55;;;;;;;13.23;1.70;;;9.30;92.80;;;;;;4986506;28;20440;-59
2022/01/03 08:41:20;;;;;;;5.23;1.63;;;9.30;92.90;;;;;;5001281;28;20663;-59
2022/01/03 08:43:46;;;;;;;5.43;2.00;;;9.30;93.10;;;;;;5001493;28;20177;-57
2022/01/03 08:46:12;;;;;;;8.00;2.13;;;9.40;93.40;;;;;;5000086;28;20285;-56
2022/01/03 08:48:38;;;;;;;4.23;1.67;;;9.40;93.80;;;;;;4984047;28;20664;-57
2022/01/03 08:51:03;;;;;;;2.80;1.50;;;9.40;94.10;;;;;;5001802;28;20428;-57
2022/01/03 08:53:29;;;;;;;7.30;2.00;;;9.40;94.20;;;;;;5001087;28;20176;-58
2022/01/03 08:55:56;;;;;;;2.37;1.50;;;9.40;94.20;;;;;;4985331;28;20169;-57
2022/01/03 08:58:22;;;;;;;4.60;1.63;;;9.40;94.40;;;;;;4985202;28;20758;-57
2022/01/03 09:00:48;;;;;;;5.23;1.40;;;9.40;94.60;;;;;;5000072;28;20435;-57
2022/01/03 09:03:14;;;;;;;3.30;1.90;;;9.40;94.50;;;;;;5001375;28;20785;-56
2022/01/03 09:05:40;;;;;;;2.90;1.30;;;9.40;94.60;;;;;;4998709;28;20188;-56
2022/01/03 09:08:06;;;;;;;3.07;1.77;;;9.50;94.60;;;;;;5000927;28;20469;-57
2022/01/03 09:10:31;;;;;;;4.70;2.20;;;9.50;94.20;;;;;;4999711;28;20476;-58
2022/01/03 09:12:58;;;;;;;1.93;1.33;;;9.50;94.40;;;;;;5000593;28;20555;-55
2022/01/03 09:15:23;;;;;;;3.23;1.60;;;9.50;93.90;;;;;;5000101;28;20371;-55
2022/01/03 09:17:49;;;;;;;2.57;1.60;;;9.50;93.90;;;;;;4983947;28;20932;-56
2022/01/03 09:20:16;;;;;;;6.60;2.03;;;9.50;93.70;;;;;;4984018;28;20184;-57
2022/01/03 09:22:45;;;;;;;5.50;1.80;;;9.60;93.60;;;;;;4999559;28;20172;-60
2022/01/03 09:30:32;;;;;;;2.00;1.53;;;9.70;93.00;;;;;;5002276;28;20969;-56
2022/01/03 09:32:57;;;;;;;4.73;1.40;;;9.80;92.90;;;;;;5000679;28;20466;-60
2022/01/03 09:35:23;;;;;;;2.33;1.83;;;9.80;92.80;;;;;;5000439;28;20462;-58
2022/01/03 09:37:49;;;;;;;4.47;1.73;;;9.80;92.80;;;;;;4997268;28;20981;-55
2022/01/03 09:40:16;;;;;;;4.33;1.63;;;9.80;92.80;;;;;;5000622;28;20180;-55
2022/01/03 09:42:47;;;;;;;6.43;1.60;;;9.80;92.60;;;;;;5000338;28;20176;-57
2022/01/03 09:45:13;;;;;;;4.57;1.60;;;9.80;92.60;;;;;;4999442;28;20411;-58
2022/01/03 09:47:44;;;;;;;5.10;1.73;;;9.80;92.10;;;;;;4998964;28;20505;-56
2022/01/03 09:50:12;;;;;;;2.10;1.50;;;9.80;92.60;;;;;;4998575;28;21058;-57
2022/01/03 09:52:41;;;;;;;10.50;1.47;;;9.80;92.70;;;;;;4999984;28;20523;-60
2022/01/03 09:55:07;;;;;;;8.87;1.77;;;9.80;92.90;;;;;;4999118;28;20526;-58
2022/01/03 09:57:34;;;;;;;3.50;1.93;;;9.80;93.40;;;;;;5001011;28;20471;-54
2022/01/03 10:00:00;;;;;;;6.50;2.17;;;9.80;93.80;;;;;;4998681;28;20813;-55
2022/01/03 10:02:27;;;;;;;5.00;1.53;;;9.80;94.20;;;;;;4998235;28;20431;-58
2022/01/03 10:04:53;;;;;;;4.00;1.50;;;9.80;94.60;;;;;;5002255;28;20444;-58
2022/01/03 10:07:20;;;;;;;5.03;2.00;;;9.80;94.90;;;;;;5002179;28;20444;-56
2022/01/03 10:09:46;;;;;;;7.90;2.07;;;9.80;95.60;;;;;;5003566;28;20188;-60
2022/01/03 10:12:14;;;;;;;8.73;2.10;;;9.80;95.70;;;;;;5002867;28;20486;-58
2022/01/03 10:14:41;;;;;;;2.53;1.70;;;9.80;96.00;;;;;;5002420;28;20837;-56
2022/01/03 10:17:08;;;;;;;3.10;1.60;;;9.80;96.00;;;;;;5003603;28;20509;-57
2022/01/03 10:19:52;;;;;;;9.57;1.63;;;9.80;96.10;;;;;;5003528;28;20468;-56
2022/01/03 10:22:25;;;;;;;8.63;2.23;;;9.90;96.20;;;;;;5007908;28;20801;-55
2022/01/03 10:24:52;;;;;;;13.23;2.30;;;9.90;95.90;;;;;;5003551;28;20430;-58
2022/01/03 10:27:19;;;;;;;6.20;2.37;;;9.90;95.70;;;;;;5004092;28;20423;-58
2022/01/03 10:29:57;;;;;;;9.33;1.77;;;9.90;95.10;;;;;;4985598;28;20464;-56
2022/01/03 10:32:28;;;;;;;6.03;1.77;;;9.90;94.70;;;;;;5002498;28;20419;-56
2022/01/03 10:34:57;;;;;;;6.60;2.07;;;9.90;95.00;;;;;;4988219;28;20420;-56
2022/01/03 10:37:35;;;;;;;5.67;1.60;;;9.90;95.40;;;;;;5004355;28;20597;-57
2022/01/03 10:40:16;;;;;;;3.27;1.57;;;9.90;95.20;;;;;;5000773;28;20419;-58
2022/01/03 10:42:41;;;;;;;6.73;2.07;;;9.90;95.00;;;;;;5002566;28;20415;-59
2022/01/03 10:45:07;;;;;;;6.47;2.40;;;9.90;95.10;;;;;;5000341;28;20784;-56
2022/01/03 10:47:34;;;;;;;4.30;2.17;;;9.90;95.40;;;;;;4997795;28;20282;-55
2022/01/03 10:50:16;;;;;;;6.20;2.27;;;9.90;95.70;;;;;;5004678;28;20411;-56
2022/01/03 10:52:42;;;;;;;4.60;3.00;;;9.90;95.90;;;;;;4987597;28;20404;-55
2022/01/03 10:55:19;;;;;;;3.53;1.60;;;9.90;95.60;;;;;;5002362;28;20505;-57
2022/01/03 10:57:54;;;;;;;5.47;1.87;;;9.90;94.10;;;;;;5003080;28;20467;-56
2022/01/03 11:00:28;;;;;;;5.07;2.60;;;9.90;93.50;;;;;;5002021;28;20789;-56
2022/01/03 11:03:20;;;;;;;3.63;2.03;;;10.00;93.00;;;;;;5003743;28;20690;-56
2022/01/03 11:05:54;;;;;;;2.83;1.90;;;10.00;90.40;;;;;;5000664;28;20495;-57
2022/01/03 11:11:11;;;;;;;4.30;1.67;;;10.10;83.80;;;;;;5003122;28;20419;-55
2022/01/03 11:13:42;;;;;;;3.60;1.60;;;10.20;81.90;;;;;;5005668;28;20434;-59
2022/01/03 11:16:09;;;;;;;5.10;1.60;;;10.30;79.80;;;;;;5002534;28;20416;-58
2022/01/03 11:18:37;;;;;;;6.53;1.63;;;10.40;79.70;;;;;;5001413;28;20471;-58
2022/01/03 11:21:18;;;;;;;2.87;1.83;;;10.40;79.00;;;;;;5002700;28;20803;-56
2022/01/03 11:23:47;;;;;;;5.07;1.53;;;10.40;77.90;;;;;;5002058;28;20836;-59
2022/01/03 11:26:13;;;;;;;2.60;1.50;;;10.40;76.90;;;;;;4987888;28;20595;-58
2022/01/03 11:28:40;;;;;;;2.93;1.70;;;10.40;74.80;;;;;;4986721;28;20455;-56
2022/01/03 11:31:07;;;;;;;7.30;2.73;;;10.30;75.70;;;;;;5001307;28;20508;-58
2022/01/03 11:33:35;;;;;;;9.47;3.27;;;10.30;76.90;;;;;;4987535;28;20479;-58
2022/01/03 11:36:01;;;;;;;8.07;3.40;;;10.30;79.10;;;;;;5002071;28;20934;-56
2022/01/03 11:38:30;;;;;;;6.30;2.00;;;10.30;80.60;;;;;;5002107;28;20521;-57
2022/01/03 11:40:59;;;;;;;9.30;1.97;;;10.30;80.80;;;;;;5002525;28;20412;-58
2022/01/03 11:43:26;;;;;;;3.40;1.70;;;10.30;79.70;;;;;;5001746;28;20430;-58
2022/01/03 11:45:52;;;;;;;2.70;1.33;;;10.30;81.10;;;;;;5001184;28;21066;-58
2022/01/03 11:48:18;;;;;;;4.33;1.93;;;10.20;81.00;;;;;;5000916;28;20435;-58
2022/01/03 11:50:44;;;;;;;4.20;1.63;;;10.30;81.70;;;;;;4986527;28;20439;-58
2022/01/03 11:53:10;;;;;;;3.33;1.40;;;10.20;80.50;;;;;;5003161;28;20177;-57
2022/01/03 11:55:37;;;;;;;4.07;1.80;;;10.30;80.70;;;;;;4999600;28;20499;-58
2022/01/03 12:03:40;;;;;;;6.30;2.27;;;10.30;81.60;;;;;;5000213;28;20418;-56
2022/01/03 12:06:09;;;;;;;4.10;1.50;;;10.40;81.00;;;;;;5002267;28;20522;-58
2022/01/03 12:08:37;;;;;;;2.90;1.80;;;10.40;80.50;;;;;;4986470;28;20846;-57
2022/01/03 12:11:18;;;;;;;4.63;2.40;;;10.40;81.90;;;;;;5000284;28;20428;-56
2022/01/03 12:13:51;;;;;;;6.93;3.00;;;10.40;83.00;;;;;;5000837;28;20430;-57
2022/01/03 12:16:19;;;;;;;9.03;2.20;;;10.40;84.60;;;;;;4989408;28;20658;-58
2022/01/03 12:19:01;;;;;;;7.10;2.23;;;10.40;85.70;;;;;;5002279;28;20562;-57
2022/01/03 12:21:49;;;;;;;3.57;1.80;;;10.50;87.10;;;;;;5001841;28;20414;-55
2022/01/03 12:24:27;;;;;;;5.17;1.60;;;10.50;88.60;;;;;;5002465;28;20426;-55
2022/01/03 12:27:14;;;;;;;9.73;2.63;;;10.50;89.30;;;;;;4985444;28;20443;-55
2022/01/03 12:29:55;;;;;;;15.80;4.23;;;10.60;89.80;;;;;;4999976;28;20977;-57
2022/01/03 12:32:31;;;;;;;9.03;3.43;;;10.60;90.30;;;;;;5000455;28;20426;-55
2022/01/03 12:35:19;;;;;;;7.07;2.83;;;10.60;90.80;;;;;;4985198;28;20423;-57
2022/01/03 12:38:06;;;;;;;8.40;2.30;;;10.60;91.10;;;;;;5000042;28;20492;-58
2022/01/03 12:40:35;;;;;;;5.93;1.97;;;10.60;91.40;;;;;;5000479;28;20427;-57
2022/01/03 12:43:05;;;;;;;4.73;1.77;;;10.60;91.20;;;;;;4998183;28;20537;-58
2022/01/03 12:45:34;;;;;;;7.80;2.03;;;10.60;89.80;;;;;;5000127;28;20511;-59
2022/01/03 12:48:11;;;;;;;6.63;2.13;;;10.50;89.90;;;;;;5000637;28;20482;-58
2022/01/03 12:50:52;;;;;;;3.87;1.50;;;10.50;90.60;;;;;;4999330;28;20423;-58
2022/01/03 12:53:26;;;;;;;7.70;1.80;;;10.50;90.80;;;;;;4998402;28;20461;-59
2022/01/03 12:55:54;;;;;;;7.73;1.87;;;10.40;90.90;;;;;;5000653;28;20457;-57
2022/01/03 12:58:19;;;;;;;10.23;2.70;;;10.50;90.90;;;;;;4998433;28;21169;-59
2022/01/03 13:00:52;;;;;;;9.00;2.47;;;10.50;91.30;;;;;;4999742;28;20489;-55
2022/01/03 13:03:25;;;;;;;7.87;2.47;;;10.50;91.70;;;;;;4983977;28;20226;-57
2022/01/03 13:06:10;;;;;;;4.27;1.53;;;10.50;91.50;;;;;;4998560;28;20507;-57
2022/01/03 13:08:39;;;;;;;4.00;1.70;;;10.50;91.00;;;;;;5005894;28;20463;-57
2022/01/03 13:11:08;;;;;;;3.43;1.90;;;10.50;91.30;;;;;;5002589;28;20589;-56
2022/01/03 13:13:35;;;;;;;3.97;1.70;;;10.60;91.00;;;;;;4999856;28;20438;-59
2022/01/03 13:16:25;;;;;;;4.57;1.90;;;10.60;90.90;;;;;;4996714;28;20514;-58
2022/01/03 13:18:52;;;;;;;5.80;1.77;;;10.60;90.30;;;;;;5001214;28;20886;-57
2022/01/03 13:21:19;;;;;;;7.80;1.67;;;10.60;88.30;;;;;;5000406;28;20486;-56
2022/01/03 13:23:56;;;;;;;8.93;2.27;;;10.60;87.50;;;;;;4999969;28;20501;-56
2022/01/03 13:26:24;;;;;;;13.03;2.30;;;10.50;86.80;;;;;;4995973;28;20933;-56